Time,TemperatureF,DewpointF,PressureIn,WindDirection,WindDirectionDegrees,WindSpeedMPH,WindSpeedGustMPH,Humidity,HourlyPrecipIn,Conditions,Clouds,dailyrainin,SoftwareType,DateUTC
2013-01-15 00:13:00,4.3,-1.6,29.83,West,270,2.7,-999.0,76,-99.99,,,0.00,Acu-Link.com,2013-01-15 07:13:00,
2013-01-15 00:28:00,5.0,-0.9,29.84,West,270,2.7,-999.0,76,-99.99,,,0.00,Acu-Link.com,2013-01-15 07:28:00,
2013-01-15 00:44:00,5.2,-0.7,29.85,WSW,247,5.3,-999.0,76,-99.99,,,0.00,Acu-Link.com,2013-01-15 07:44:00,
2013-01-15 00:59:00,4.5,-1.9,29.86,WSW,247,0.0,-999.0,74,-99.99,,,0.00,Acu-Link.com,2013-01-15 07:59:00,
2013-01-15 01:14:00,4.3,-2.1,29.86,West,270,2.7,-999.0,74,-99.99,,,0.00,Acu-Link.com,2013-01-15 08:14:00,
2013-01-15 01:30:00,2.8,-3.9,29.87,West,270,1.7,-999.0,73,-99.99,,,0.00,Acu-Link.com,2013-01-15 08:30:00,
2013-01-15 01:45:00,2.5,-4.4,29.87,West,270,2.2,-999.0,72,-99.99,,,0.00,Acu-Link.com,2013-01-15 08:45:00,
2013-01-15 02:00:00,3.0,-3.7,29.87,WSW,247,2.2,-999.0,73,-99.99,,,0.00,Acu-Link.com,2013-01-15 09:00:00,
2013-01-15 02:15:00,3.2,-3.5,29.87,WSW,247,3.2,-999.0,73,-99.99,,,0.00,Acu-Link.com,2013-01-15 09:15:00,
2013-01-15 02:30:00,3.6,-3.1,29.87,WSW,247,3.2,-999.0,73,-99.99,,,0.00,Acu-Link.com,2013-01-15 09:30:00,
2013-01-15 02:46:00,1.6,-5.0,29.88,WSW,247,2.7,-999.0,73,-99.99,,,0.00,Acu-Link.com,2013-01-15 09:46:00,
2013-01-15 03:01:00,1.4,-5.5,29.90,WSW,247,1.7,-999.0,72,-99.99,,,0.00,Acu-Link.com,2013-01-15 10:01:00,
2013-01-15 03:16:00,1.6,-5.6,29.89,WSW,247,2.2,-999.0,71,-99.99,,,0.00,Acu-Link.com,2013-01-15 10:16:00,
2013-01-15 03:31:00,1.9,-5.0,29.89,WSW,247,2.7,-999.0,72,-99.99,,,0.00,Acu-Link.com,2013-01-15 10:31:00,
2013-01-15 03:47:00,2.1,-4.8,29.90,WSW,247,0.0,-999.0,72,-99.99,,,0.00,Acu-Link.com,2013-01-15 10:47:00,
2013-01-15 04:02:00,1.9,-5.0,29.90,WSW,247,1.7,-999.0,72,-99.99,,,0.00,Acu-Link.com,2013-01-15 11:02:00,
2013-01-15 04:17:00,1.9,-5.0,29.90,WSW,247,2.2,-999.0,72,-99.99,,,0.00,Acu-Link.com,2013-01-15 11:17:00,
2013-01-15 04:33:00,0.3,-6.6,29.90,WSW,247,3.2,-999.0,72,-99.99,,,0.00,Acu-Link.com,2013-01-15 11:33:00,
2013-01-15 04:48:00,1.4,-5.5,29.90,WSW,247,1.7,-999.0,72,-99.99,,,0.00,Acu-Link.com,2013-01-15 11:48:00,
2013-01-15 05:03:00,0.9,-6.0,29.90,WSW,247,0.0,-999.0,72,-99.99,,,0.00,Acu-Link.com,2013-01-15 12:03:00,
2013-01-15 05:19:00,0.7,-6.2,29.89,WSW,247,0.0,-999.0,72,-99.99,,,0.00,Acu-Link.com,2013-01-15 12:19:00,
2013-01-15 05:34:00,0.1,-6.7,29.89,WSW,247,0.0,-999.0,72,-99.99,,,0.00,Acu-Link.com,2013-01-15 12:34:00,
2013-01-15 05:49:00,0.0,-6.8,29.90,WSW,247,0.0,-999.0,72,-99.99,,,0.00,Acu-Link.com,2013-01-15 12:49:00,
2013-01-15 06:05:00,-0.2,-7.0,29.91,WSW,247,0.0,-999.0,72,-99.99,,,0.00,Acu-Link.com,2013-01-15 13:05:00,
2013-01-15 06:20:00,0.1,-6.7,29.92,WSW,247,0.0,-999.0,72,-99.99,,,0.00,Acu-Link.com,2013-01-15 13:20:00,
2013-01-15 06:35:00,-0.2,-7.0,29.92,WSW,247,3.2,-999.0,72,-99.99,,,0.00,Acu-Link.com,2013-01-15 13:35:00,
2013-01-15 06:51:00,-0.8,-7.6,29.93,WSW,247,3.2,-999.0,72,-99.99,,,0.00,Acu-Link.com,2013-01-15 13:51:00,
2013-01-15 07:06:00,-2.0,-9.3,29.93,WSW,247,3.7,-999.0,70,-99.99,,,0.00,Acu-Link.com,2013-01-15 14:06:00,
2013-01-15 07:21:00,-2.4,-9.7,29.94,WSW,247,2.7,-999.0,70,-99.99,,,0.00,Acu-Link.com,2013-01-15 14:21:00,
2013-01-15 07:36:00,-3.1,-10.4,29.94,WSW,247,1.1,-999.0,70,-99.99,,,0.00,Acu-Link.com,2013-01-15 14:36:00,
2013-01-15 07:52:00,-3.3,-11.5,29.95,WSW,247,2.2,-999.0,67,-99.99,,,0.00,Acu-Link.com,2013-01-15 14:52:00,
2013-01-15 08:07:00,-2.0,-9.9,29.96,WSW,247,3.2,-999.0,68,-99.99,,,0.00,Acu-Link.com,2013-01-15 15:07:00,
2013-01-15 08:22:00,4.1,-4.4,29.98,WSW,247,0.0,-999.0,67,-99.99,,,0.00,Acu-Link.com,2013-01-15 15:22:00,
2013-01-15 08:38:00,3.2,-7.2,29.97,WSW,247,2.2,-999.0,61,-99.99,,,0.00,Acu-Link.com,2013-01-15 15:38:00,
2013-01-15 08:53:00,7.2,-3.4,29.98,WSW,247,2.2,-999.0,61,-99.99,,,0.00,Acu-Link.com,2013-01-15 15:53:00,
2013-01-15 09:08:00,12.6,-0.5,30.00,WSW,247,0.0,-999.0,55,-99.99,,,0.00,Acu-Link.com,2013-01-15 16:08:00,
2013-01-15 09:24:00,8.4,-5.2,29.99,WSW,247,0.0,-999.0,53,-99.99,,,0.00,Acu-Link.com,2013-01-15 16:24:00,
2013-01-15 09:39:00,7.7,-6.6,30.00,WSW,247,3.2,-999.0,51,-99.99,,,0.00,Acu-Link.com,2013-01-15 16:39:00,
2013-01-15 09:54:00,8.6,-5.4,30.00,WSW,247,4.7,-999.0,52,-99.99,,,0.00,Acu-Link.com,2013-01-15 16:54:00,
2013-01-15 10:10:00,5.0,-8.3,30.01,West,270,1.7,-999.0,53,-99.99,,,0.00,Acu-Link.com,2013-01-15 17:10:00,
2013-01-15 10:25:00,8.1,-5.4,30.01,West,270,0.0,-999.0,53,-99.99,,,0.00,Acu-Link.com,2013-01-15 17:25:00,
2013-01-15 11:01:00,10.8,-3.7,30.02,SW,225,5.8,-999.0,51,-99.99,,,0.00,Acu-Link.com,2013-01-15 18:01:00,
2013-01-15 11:16:00,10.4,-3.3,29.98,South,180,5.3,-999.0,53,-99.99,,,0.00,Acu-Link.com,2013-01-15 18:16:00,
2013-01-15 11:31:00,10.9,-2.8,29.99,SW,225,5.8,-999.0,53,-99.99,,,0.00,Acu-Link.com,2013-01-15 18:31:00,
2013-01-15 11:47:00,13.1,-2.0,29.99,SW,225,3.2,-999.0,50,-99.99,,,0.00,Acu-Link.com,2013-01-15 18:47:00,
2013-01-15 12:02:00,13.1,-2.9,29.97,SSW,202,3.2,-999.0,48,-99.99,,,0.00,Acu-Link.com,2013-01-15 19:02:00,
2013-01-15 12:17:00,14.4,-2.6,29.96,WSW,247,4.7,-999.0,46,-99.99,,,0.00,Acu-Link.com,2013-01-15 19:17:00,
2013-01-15 12:32:00,14.9,-2.6,29.96,WSW,247,5.3,-999.0,45,-99.99,,,0.00,Acu-Link.com,2013-01-15 19:32:00,
2013-01-15 12:48:00,15.6,-1.9,29.96,WSW,247,5.8,-999.0,45,-99.99,,,0.00,Acu-Link.com,2013-01-15 19:48:00,
2013-01-15 13:03:00,15.6,-3.4,29.95,WSW,247,1.7,-999.0,42,-99.99,,,0.00,Acu-Link.com,2013-01-15 20:03:00,
2013-01-15 13:18:00,17.6,-2.0,29.96,West,270,5.8,-999.0,41,-99.99,,,0.00,Acu-Link.com,2013-01-15 20:18:00,
2013-01-15 13:33:00,16.9,-3.2,29.96,WSW,247,3.2,-999.0,40,-99.99,,,0.00,Acu-Link.com,2013-01-15 20:33:00,
2013-01-15 13:49:00,17.8,-2.4,29.96,WSW,247,4.2,-999.0,40,-99.99,,,0.00,Acu-Link.com,2013-01-15 20:49:00,
2013-01-15 14:04:00,16.2,-3.8,29.96,WSW,247,2.7,-999.0,40,-99.99,,,0.00,Acu-Link.com,2013-01-15 21:04:00,
2013-01-15 14:19:00,18.3,-2.5,29.96,WSW,247,4.7,-999.0,39,-99.99,,,0.00,Acu-Link.com,2013-01-15 21:19:00,
2013-01-15 14:34:00,17.8,-3.5,29.97,SW,225,3.7,-999.0,38,-99.99,,,0.00,Acu-Link.com,2013-01-15 21:34:00,
2013-01-15 14:50:00,18.1,-4.3,29.99,South,180,4.7,-999.0,36,-99.99,,,0.00,Acu-Link.com,2013-01-15 21:50:00,
2013-01-15 15:05:00,18.0,-5.0,29.98,South,180,6.3,-999.0,35,-99.99,,,0.00,Acu-Link.com,2013-01-15 22:05:00,
2013-01-15 15:20:00,16.3,-5.9,29.99,South,180,5.8,-999.0,36,-99.99,,,0.00,Acu-Link.com,2013-01-15 22:20:00,
2013-01-15 15:36:00,16.0,-6.2,30.00,South,180,4.7,-999.0,36,-99.99,,,0.00,Acu-Link.com,2013-01-15 22:36:00,
2013-01-15 15:51:00,16.2,-5.4,30.00,South,180,4.2,-999.0,37,-99.99,,,0.00,Acu-Link.com,2013-01-15 22:51:00,
2013-01-15 16:06:00,14.7,-6.2,30.00,South,180,4.2,-999.0,38,-99.99,,,0.00,Acu-Link.com,2013-01-15 23:06:00,
2013-01-15 16:22:00,14.0,-6.3,30.01,South,180,3.2,-999.0,39,-99.99,,,0.00,Acu-Link.com,2013-01-15 23:22:00,
2013-01-15 16:37:00,13.6,-6.2,30.02,South,180,3.2,-999.0,40,-99.99,,,0.00,Acu-Link.com,2013-01-15 23:37:00,
2013-01-15 16:52:00,12.9,-5.8,30.02,South,180,2.7,-999.0,42,-99.99,,,0.00,Acu-Link.com,2013-01-15 23:52:00,
2013-01-15 17:08:00,12.9,-4.9,30.03,South,180,3.7,-999.0,44,-99.99,,,0.00,Acu-Link.com,2013-01-16 00:08:00,
2013-01-15 17:23:00,13.3,-4.5,30.03,South,180,4.7,-999.0,44,-99.99,,,0.00,Acu-Link.com,2013-01-16 00:23:00,
2013-01-15 17:38:00,13.5,-3.8,30.04,SE,135,3.7,-999.0,45,-99.99,,,0.00,Acu-Link.com,2013-01-16 00:38:00,
2013-01-15 17:53:00,13.6,-3.7,30.04,South,180,4.2,-999.0,45,-99.99,,,0.00,Acu-Link.com,2013-01-16 00:53:00,
2013-01-15 18:09:00,12.6,-3.8,30.06,South,180,2.2,-999.0,47,-99.99,,,0.00,Acu-Link.com,2013-01-16 01:09:00,
2013-01-15 18:24:00,10.9,-3.6,30.06,SE,135,3.7,-999.0,51,-99.99,,,0.00,Acu-Link.com,2013-01-16 01:24:00,
2013-01-15 18:39:00,9.7,-3.6,30.09,SE,135,2.7,-999.0,54,-99.99,,,0.00,Acu-Link.com,2013-01-16 01:39:00,
2013-01-15 18:55:00,7.9,-4.5,30.09,SSE,157,3.7,-999.0,56,-99.99,,,0.00,Acu-Link.com,2013-01-16 01:55:00,
2013-01-15 19:10:00,7.3,-4.7,30.08,SE,135,3.2,-999.0,57,-99.99,,,0.00,Acu-Link.com,2013-01-16 02:10:00,
2013-01-15 19:25:00,5.5,-6.0,30.09,SE,135,0.0,-999.0,58,-99.99,,,0.00,Acu-Link.com,2013-01-16 02:25:00,
2013-01-15 19:41:00,4.6,-6.5,30.11,SE,135,2.2,-999.0,59,-99.99,,,0.00,Acu-Link.com,2013-01-16 02:41:00,
2013-01-15 19:56:00,5.0,-5.8,30.09,SE,135,4.2,-999.0,60,-99.99,,,0.00,Acu-Link.com,2013-01-16 02:56:00,
2013-01-15 20:11:00,4.1,-7.0,30.08,SE,135,4.2,-999.0,59,-99.99,,,0.00,Acu-Link.com,2013-01-16 03:11:00,
2013-01-15 20:27:00,3.2,-7.5,30.09,SE,135,0.0,-999.0,60,-99.99,,,0.00,Acu-Link.com,2013-01-16 03:27:00,
2013-01-15 20:42:00,1.8,-8.5,30.11,SE,135,2.2,-999.0,61,-99.99,,,0.00,Acu-Link.com,2013-01-16 03:42:00,
2013-01-15 20:57:00,2.3,-7.7,30.11,SE,135,2.7,-999.0,62,-99.99,,,0.00,Acu-Link.com,2013-01-16 03:57:00,
2013-01-15 21:13:00,3.2,-7.2,30.10,SE,135,2.2,-999.0,61,-99.99,,,0.00,Acu-Link.com,2013-01-16 04:13:00,
2013-01-15 21:28:00,2.8,-8.2,30.10,SE,135,0.0,-999.0,59,-99.99,,,0.00,Acu-Link.com,2013-01-16 04:28:00,
2013-01-15 21:43:00,1.4,-8.9,30.12,SE,135,3.2,-999.0,61,-99.99,,,0.00,Acu-Link.com,2013-01-16 04:43:00,
2013-01-15 21:59:00,1.9,-8.1,30.13,SE,135,2.7,-999.0,62,-99.99,,,0.00,Acu-Link.com,2013-01-16 04:59:00,
2013-01-15 22:14:00,1.6,-8.7,30.14,SE,135,3.2,-999.0,61,-99.99,,,0.00,Acu-Link.com,2013-01-16 05:14:00,
2013-01-15 22:29:00,0.7,-9.5,30.12,SE,135,1.7,-999.0,61,-99.99,,,0.00,Acu-Link.com,2013-01-16 05:29:00,
2013-01-15 22:44:00,-0.8,-10.3,30.14,SE,135,1.7,-999.0,63,-99.99,,,0.00,Acu-Link.com,2013-01-16 05:44:00,
2013-01-15 23:00:00,-0.6,-9.5,30.14,SE,135,0.0,-999.0,65,-99.99,,,0.00,Acu-Link.com,2013-01-16 06:00:00,
2013-01-15 23:15:00,-0.4,-9.3,30.16,SE,135,3.2,-999.0,65,-99.99,,,0.00,Acu-Link.com,2013-01-16 06:15:00,
2013-01-15 23:30:00,0.0,-9.6,30.15,SE,135,1.7,-999.0,63,-99.99,,,0.00,Acu-Link.com,2013-01-16 06:30:00,
2013-01-15 23:46:00,-0.4,-9.9,30.15,SE,135,4.2,-999.0,63,-99.99,,,0.00,Acu-Link.com,2013-01-16 06:46:00,